createdAt,value
2019-01-11T00:00:17.544Z,98277.91
2019-01-11T00:00:50.006Z,98280.40
2019-01-11T00:01:21.602Z,98276.86
2019-01-11T00:01:53.184Z,98274.19
2019-01-11T00:02:24.777Z,98277.13
2019-01-11T00:02:56.392Z,98268.16
2019-01-11T00:03:27.998Z,98273.69
2019-01-11T00:03:59.594Z,98273.27
2019-01-11T00:04:31.190Z,98276.19
2019-01-11T00:05:02.829Z,98270.66
2019-01-11T00:05:34.421Z,98272.71
2019-01-11T00:06:06.017Z,98272.66
2019-01-11T00:06:37.622Z,98276.02
2019-01-11T00:07:09.228Z,98274.31
2019-01-11T00:07:40.836Z,98269.66
2019-01-11T00:08:12.454Z,98273.88
2019-01-11T00:08:44.063Z,98272.91
2019-01-11T00:09:15.661Z,98276.30
2019-01-11T00:09:47.263Z,98271.18
2019-01-11T00:10:18.863Z,98256.86
2019-01-11T00:10:50.449Z,98271.98
2019-01-11T00:11:22.041Z,98270.27
2019-01-11T00:11:53.643Z,98271.44
2019-01-11T00:12:25.234Z,98265.00
2019-01-11T00:12:56.854Z,98270.48
2019-01-11T00:13:28.446Z,98268.95
2019-01-11T00:14:00.040Z,98273.15
2019-01-11T00:14:31.652Z,98269.40
2019-01-11T00:15:03.260Z,98282.23
2019-01-11T00:15:34.863Z,98276.86
2019-01-11T00:16:06.457Z,98270.70
2019-01-11T00:16:38.064Z,98282.94
2019-01-11T00:17:09.662Z,98282.45
2019-01-11T00:17:41.254Z,98286.00
2019-01-11T00:18:12.888Z,98280.90
2019-01-11T00:18:44.504Z,98281.33
2019-01-11T00:19:16.108Z,98280.88
2019-01-11T00:19:47.716Z,98280.25
2019-01-11T00:20:19.319Z,98279.88
2019-01-11T00:20:50.903Z,98275.64
2019-01-11T00:21:22.503Z,98275.67
2019-01-11T00:21:54.095Z,98277.38
2019-01-11T00:22:25.690Z,98273.66
2019-01-11T00:22:57.321Z,98273.75
2019-01-11T00:23:28.925Z,98270.95
2019-01-11T00:24:00.556Z,98267.72
2019-01-11T00:24:32.150Z,98273.45
2019-01-11T00:25:03.741Z,98276.71
2019-01-11T00:25:35.344Z,98274.45
2019-01-11T00:26:07.083Z,98275.58
2019-01-11T00:26:38.687Z,98269.95
2019-01-11T00:27:10.340Z,98279.22
2019-01-11T00:27:41.937Z,98277.47
2019-01-11T00:28:13.565Z,98273.16
2019-01-11T00:28:45.167Z,98241.16
2019-01-11T00:29:16.777Z,98274.34
2019-01-11T00:29:48.397Z,98278.96
2019-01-11T00:30:19.999Z,98280.66
2019-01-11T00:30:51.595Z,98278.53
2019-01-11T00:31:23.186Z,98275.94
2019-01-11T00:31:54.778Z,98276.78
2019-01-11T00:32:26.355Z,98280.56
2019-01-11T00:32:57.946Z,98282.27
2019-01-11T00:33:29.565Z,98272.43
2019-01-11T00:34:01.172Z,98282.22
2019-01-11T00:34:32.782Z,98272.84
2019-01-11T00:35:04.388Z,98278.81
2019-01-11T00:35:35.971Z,98277.53
2019-01-11T00:36:07.563Z,98265.61
2019-01-11T00:36:39.181Z,98256.84
2019-01-11T00:37:10.778Z,98275.36
2019-01-11T00:37:42.352Z,98271.52
2019-01-11T00:38:13.969Z,98271.52
2019-01-11T00:38:45.559Z,98269.81
2019-01-11T00:39:17.155Z,98271.09
2019-01-11T00:39:48.749Z,98275.31
2019-01-11T00:40:20.362Z,98271.05
2019-01-11T00:40:51.967Z,98270.19
2019-01-11T00:41:23.572Z,98273.59
2019-01-11T00:41:55.169Z,98275.30
2019-01-11T00:42:26.776Z,98271.89
2019-01-11T00:42:58.360Z,98274.44
2019-01-11T00:43:29.940Z,98270.61
2019-01-11T00:44:01.547Z,98271.46
2019-01-11T00:44:33.142Z,98271.04
2019-01-11T00:45:04.734Z,98276.14
2019-01-11T00:45:36.316Z,98276.96
2019-01-11T00:46:07.927Z,98272.31
2019-01-11T00:46:39.516Z,98272.32
2019-01-11T00:47:11.113Z,98276.16
2019-01-11T00:47:42.701Z,98278.75
2019-01-11T00:48:14.319Z,98273.64
2019-01-11T00:48:45.910Z,98280.88
2019-01-11T00:49:17.506Z,98276.63
2019-01-11T00:49:49.131Z,98280.89
2019-01-11T00:50:20.711Z,98278.39
2019-01-11T00:50:52.313Z,98276.25
2019-01-11T00:51:23.910Z,98276.69
2019-01-11T00:51:55.502Z,98277.59
2019-01-11T00:52:27.108Z,98285.63
2019-01-11T00:52:58.712Z,98280.13
2019-01-11T00:53:30.306Z,98277.95
2019-01-11T00:54:01.888Z,98278.80
2019-01-11T00:54:33.481Z,98277.53
2019-01-11T00:55:06.024Z,98276.72
2019-01-11T00:55:36.721Z,98280.98
2019-01-11T00:56:08.313Z,98274.60
2019-01-11T00:56:39.904Z,98271.63
2019-01-11T00:57:11.498Z,98275.88
2019-01-11T00:57:43.112Z,98273.76
2019-01-11T00:58:14.720Z,98270.34
2019-01-11T00:58:46.341Z,98275.45
2019-01-11T00:59:17.948Z,98278.02
2019-01-11T00:59:49.541Z,98278.00
2019-01-11T01:00:21.139Z,98271.20
2019-01-11T01:00:52.736Z,98275.88
2019-01-11T01:01:24.407Z,98279.72
2019-01-11T01:01:55.987Z,98280.56
2019-01-11T01:02:27.586Z,98278.00
2019-01-11T01:02:59.178Z,98280.56
2019-01-11T01:03:30.798Z,98279.28
2019-01-11T01:04:02.404Z,98279.28
2019-01-11T01:04:34.012Z,98278.43
2019-01-11T01:05:05.628Z,98282.22
2019-01-11T01:05:37.239Z,98280.09
2019-01-11T01:06:08.833Z,98276.27
2019-01-11T01:06:40.432Z,98280.13
2019-01-11T01:07:12.025Z,98277.59
2019-01-11T01:07:43.613Z,98281.38
2019-01-11T01:08:15.206Z,98281.41
2019-01-11T01:08:46.826Z,98279.30
2019-01-11T01:09:18.418Z,98278.86
2019-01-11T01:09:50.028Z,98281.42
2019-01-11T01:10:21.623Z,98284.86
2019-01-11T01:10:53.219Z,98281.03
2019-01-11T01:11:24.813Z,98278.48
2019-01-11T01:11:56.409Z,98283.16
2019-01-11T01:12:28.011Z,98284.88
2019-01-11T01:12:59.606Z,98286.62
2019-01-11T01:13:31.203Z,98284.49
2019-01-11T01:14:02.822Z,98280.25
2019-01-11T01:14:34.432Z,98279.40
2019-01-11T01:15:06.030Z,98279.36
2019-01-11T01:15:37.616Z,98280.25
2019-01-11T01:16:09.217Z,98277.27
2019-01-11T01:16:40.819Z,98281.53
2019-01-11T01:17:12.428Z,98277.70
2019-01-11T01:17:44.044Z,98276.84
2019-01-11T01:18:15.634Z,98278.97
2019-01-11T01:18:47.249Z,98278.97
2019-01-11T01:19:20.069Z,98280.25
2019-01-11T01:19:50.502Z,98275.58
2019-01-11T01:20:22.083Z,98283.23
2019-01-11T01:20:53.673Z,98273.44
2019-01-11T01:21:25.265Z,98272.55
2019-01-11T01:21:56.867Z,98270.84
2019-01-11T01:22:28.473Z,98277.23
2019-01-11T01:23:00.076Z,98270.45
2019-01-11T01:23:31.670Z,98271.73
2019-01-11T01:24:03.296Z,98271.73
2019-01-11T01:24:34.905Z,98272.16
2019-01-11T01:25:06.502Z,98268.77
2019-01-11T01:25:38.084Z,98267.91
2019-01-11T01:26:09.695Z,98274.70
2019-01-11T01:26:41.290Z,98273.85
2019-01-11T01:27:12.883Z,98280.23
2019-01-11T01:27:44.488Z,98274.28
2019-01-11T01:28:16.096Z,98272.13
2019-01-11T01:28:47.724Z,98267.89
2019-01-11T01:29:19.356Z,98277.26
2019-01-11T01:29:50.940Z,98275.55
2019-01-11T01:30:22.548Z,98271.30
2019-01-11T01:30:54.145Z,98272.11
2019-01-11T01:31:25.728Z,98274.23
2019-01-11T01:31:57.308Z,98271.30
2019-01-11T01:32:28.915Z,98274.27
2019-01-11T01:33:00.509Z,98276.83
2019-01-11T01:33:32.117Z,98273.83
2019-01-11T01:34:03.739Z,98271.70
2019-01-11T01:34:35.348Z,98269.59
2019-01-11T01:35:06.945Z,98275.55
2019-01-11T01:35:38.538Z,98237.18
2019-01-11T01:36:10.134Z,98277.22
2019-01-11T01:36:41.752Z,98269.55
2019-01-11T01:37:13.359Z,98276.83
2019-01-11T01:37:44.953Z,98271.70
2019-01-11T01:38:16.556Z,98276.38
2019-01-11T01:38:48.152Z,98273.85
2019-01-11T01:39:19.771Z,98273.42
2019-01-11T01:39:51.366Z,98271.30
2019-01-11T01:40:22.996Z,98274.70
2019-01-11T01:40:54.603Z,98280.66
2019-01-11T01:41:26.188Z,98274.70
2019-01-11T01:41:57.782Z,98276.41
2019-01-11T01:42:29.392Z,98277.69
2019-01-11T01:43:01.064Z,98276.83
2019-01-11T01:43:32.653Z,98271.27
2019-01-11T01:44:04.288Z,98275.58
2019-01-11T01:44:35.880Z,98281.95
2019-01-11T01:45:07.474Z,98278.98
2019-01-11T01:45:39.065Z,98276.05
2019-01-11T01:46:10.662Z,98273.92
2019-01-11T01:46:42.258Z,98274.34
2019-01-11T01:47:13.864Z,98276.05
2019-01-11T01:47:45.476Z,98273.93
2019-01-11T01:48:17.079Z,98281.16
2019-01-11T01:48:48.693Z,98277.75
2019-01-11T01:49:26.385Z,98280.30
2019-01-11T01:49:51.947Z,98281.58
2019-01-11T01:50:23.553Z,98276.48
2019-01-11T01:50:55.145Z,98281.59
2019-01-11T01:51:26.738Z,98279.92
2019-01-11T01:51:58.320Z,98274.39
2019-01-11T01:52:29.913Z,98274.81
2019-01-11T01:53:01.520Z,98274.39
2019-01-11T01:53:33.131Z,98272.65
2019-01-11T01:54:04.749Z,98269.67
2019-01-11T01:54:36.365Z,98274.77
2019-01-11T01:55:07.972Z,98276.43
2019-01-11T01:55:39.567Z,98277.70
2019-01-11T01:56:11.167Z,98274.73
2019-01-11T01:56:42.768Z,98275.62
2019-01-11T01:57:14.366Z,98275.61
2019-01-11T01:57:45.956Z,98277.28
2019-01-11T01:58:17.549Z,98283.28
2019-01-11T01:58:49.160Z,98281.11
2019-01-11T01:59:20.791Z,98277.74
2019-01-11T01:59:52.412Z,98278.56
2019-01-11T02:00:24.015Z,98279.88
2019-01-11T02:00:55.620Z,98275.61
2019-01-11T02:01:27.227Z,98278.98
2019-01-11T02:01:58.843Z,98276.90
2019-01-11T02:02:30.440Z,98275.62
2019-01-11T02:03:02.033Z,98275.19
2019-01-11T02:03:33.635Z,98274.30
2019-01-11T02:04:05.229Z,98276.81
2019-01-11T02:04:36.850Z,98277.25
2019-01-11T02:05:08.455Z,98276.36
2019-01-11T02:05:40.050Z,98279.33
2019-01-11T02:06:11.636Z,98274.65
2019-01-11T02:06:43.234Z,98275.92
2019-01-11T02:07:14.848Z,98277.97
2019-01-11T02:07:46.439Z,98280.89
2019-01-11T02:08:18.033Z,98278.00
2019-01-11T02:08:49.630Z,98272.10
2019-01-11T02:09:21.261Z,98276.00
2019-01-11T02:09:52.860Z,98273.59
2019-01-11T02:10:24.464Z,98277.43
2019-01-11T02:10:56.076Z,98269.77
2019-01-11T02:11:27.673Z,98268.86
2019-01-11T02:11:59.273Z,98273.07
2019-01-11T02:12:30.856Z,98267.95
2019-01-11T02:13:02.456Z,98269.61
2019-01-11T02:13:34.039Z,98268.74
2019-01-11T02:14:05.631Z,98271.30
2019-01-11T02:14:37.259Z,98272.53
2019-01-11T02:15:08.867Z,98267.00
2019-01-11T02:15:40.457Z,98270.82
2019-01-11T02:16:12.050Z,98273.37
2019-01-11T02:16:43.659Z,98272.05
2019-01-11T02:17:15.254Z,98267.80
2019-01-11T02:17:46.846Z,98270.34
2019-01-11T02:18:18.446Z,98265.66
2019-01-11T02:18:50.042Z,98266.52
2019-01-11T02:19:21.656Z,98263.95
2019-01-11T02:19:53.291Z,98273.32
2019-01-11T02:20:24.898Z,98269.48
2019-01-11T02:20:56.489Z,98263.06
2019-01-11T02:21:28.082Z,98265.19
2019-01-11T02:21:59.665Z,98259.70
2019-01-11T02:22:31.259Z,98263.58
2019-01-11T02:23:02.846Z,98268.22
2019-01-11T02:23:34.437Z,98265.28
2019-01-11T02:24:06.019Z,98266.52
2019-01-11T02:24:37.648Z,98268.27
2019-01-11T02:25:09.241Z,98269.92
2019-01-11T02:25:46.163Z,98264.39
2019-01-11T02:26:12.512Z,98266.52
2019-01-11T02:26:44.106Z,98267.80
2019-01-11T02:27:15.701Z,98268.69
2019-01-11T02:27:47.307Z,98270.81
2019-01-11T02:28:18.950Z,98269.13
2019-01-11T02:28:50.556Z,98272.11
2019-01-11T02:29:22.163Z,98267.89
2019-01-11T02:29:53.783Z,98266.21
2019-01-11T02:30:25.368Z,98267.05
2019-01-11T02:30:56.962Z,98272.58
2019-01-11T02:31:28.553Z,98268.72
2019-01-11T02:32:00.156Z,98266.16
2019-01-11T02:32:31.739Z,98268.34
2019-01-11T02:33:03.335Z,98272.58
2019-01-11T02:33:34.949Z,98269.56
2019-01-11T02:34:06.546Z,98271.30
2019-01-11T02:34:38.165Z,98266.59
2019-01-11T02:35:09.768Z,98268.72
2019-01-11T02:35:41.362Z,98270.87
2019-01-11T02:36:12.954Z,98261.50
2019-01-11T02:36:44.556Z,98267.84
2019-01-11T02:37:16.150Z,98262.30
2019-01-11T02:37:47.741Z,98260.17
2019-01-11T02:38:19.348Z,98260.12
2019-01-11T02:38:50.951Z,98259.28
2019-01-11T02:39:22.536Z,98260.55
2019-01-11T02:39:54.145Z,98258.33
2019-01-11T02:40:25.751Z,98258.32
2019-01-11T02:40:57.347Z,98255.72
2019-01-11T02:41:28.952Z,98259.53
2019-01-11T02:42:00.571Z,98259.02
2019-01-11T02:42:32.187Z,98256.88
2019-01-11T02:43:03.777Z,98250.92
2019-01-11T02:43:35.384Z,98255.50
2019-01-11T02:44:06.982Z,98258.05
2019-01-11T02:44:38.579Z,98252.47
2019-01-11T02:45:10.212Z,98254.17
2019-01-11T02:45:41.818Z,98253.31
2019-01-11T02:46:13.410Z,98218.77
2019-01-11T02:46:45.011Z,98254.86
2019-01-11T02:47:16.627Z,98253.14
2019-01-11T02:47:48.232Z,98254.81
2019-01-11T02:48:19.816Z,98253.91
2019-01-11T02:48:51.497Z,98244.52
2019-01-11T02:49:23.104Z,98258.11
2019-01-11T02:49:55.114Z,98247.88
2019-01-11T02:50:26.407Z,98256.81
2019-01-11T02:50:58.007Z,98250.84
2019-01-11T02:51:29.607Z,98247.81
2019-01-11T02:52:01.188Z,98245.20
2019-01-11T02:52:32.793Z,98243.02
2019-01-11T02:53:04.390Z,98244.23
2019-01-11T02:53:35.998Z,98244.19
2019-01-11T02:54:07.594Z,98248.44
2019-01-11T02:54:39.204Z,98245.81
2019-01-11T02:55:10.837Z,98248.77
2019-01-11T02:55:42.416Z,98248.34
2019-01-11T02:56:14.007Z,98248.75
2019-01-11T02:56:45.603Z,98247.91
2019-01-11T02:57:17.212Z,98242.79
2019-01-11T02:57:48.822Z,98244.50
2019-01-11T02:58:20.413Z,98244.50
2019-01-11T02:58:52.017Z,98235.98
2019-01-11T02:59:23.600Z,98241.94
2019-01-11T02:59:55.208Z,98236.83
2019-01-11T03:00:26.817Z,98239.00
2019-01-11T03:00:58.402Z,98242.36
2019-01-11T03:01:29.999Z,98241.07
2019-01-11T03:02:01.602Z,98237.62
2019-01-11T03:02:33.201Z,98235.91
2019-01-11T03:03:04.797Z,98239.32
2019-01-11T03:03:36.379Z,98214.84
2019-01-11T03:04:07.974Z,98232.87
2019-01-11T03:04:39.569Z,98230.69
2019-01-11T03:05:11.191Z,98238.34
2019-01-11T03:05:42.789Z,98231.47
2019-01-11T03:06:14.389Z,98233.59
2019-01-11T03:06:45.982Z,98235.30
2019-01-11T03:07:17.588Z,98227.58
2019-01-11T03:07:49.196Z,98232.25
2019-01-11T03:08:20.789Z,98231.78
2019-01-11T03:08:52.391Z,98235.17
2019-01-11T03:09:23.985Z,98227.91
2019-01-11T03:09:55.587Z,98234.25
2019-01-11T03:10:27.246Z,98230.84
2019-01-11T03:10:58.829Z,98225.77
2019-01-11T03:11:30.424Z,98228.70
2019-01-11T03:12:02.019Z,98229.50
2019-01-11T03:12:33.599Z,98227.78
2019-01-11T03:13:05.214Z,98224.33
2019-01-11T03:13:36.802Z,98232.41
2019-01-11T03:14:08.398Z,98224.74
2019-01-11T03:14:40.008Z,98221.77
2019-01-11T03:15:11.645Z,98222.98
2019-01-11T03:15:43.232Z,98223.34
2019-01-11T03:16:14.826Z,98222.89
2019-01-11T03:16:46.437Z,98224.17
2019-01-11T03:17:18.048Z,98223.77
2019-01-11T03:17:49.653Z,98219.88
2019-01-11T03:18:21.268Z,98222.42
2019-01-11T03:18:52.867Z,98219.88
2019-01-11T03:19:24.470Z,98220.77
2019-01-11T03:19:56.068Z,98218.64
2019-01-11T03:20:27.702Z,98220.36
2019-01-11T03:20:59.308Z,98218.70
2019-01-11T03:21:30.916Z,98213.16
2019-01-11T03:22:02.633Z,98212.73
2019-01-11T03:22:34.217Z,98213.60
2019-01-11T03:23:05.822Z,98211.51
2019-01-11T03:23:37.443Z,98210.63
2019-01-11T03:24:09.038Z,98211.52
2019-01-11T03:24:40.622Z,98208.11
2019-01-11T03:25:12.211Z,98211.53
2019-01-11T03:25:43.802Z,98212.80
2019-01-11T03:26:15.384Z,98214.92
2019-01-11T03:26:46.992Z,98213.18
2019-01-11T03:27:18.604Z,98219.20
2019-01-11T03:27:50.216Z,98208.11
2019-01-11T03:28:21.801Z,98208.13
2019-01-11T03:28:53.394Z,98211.53
2019-01-11T03:29:24.979Z,98206.89
2019-01-11T03:29:56.580Z,98203.91
2019-01-11T03:30:28.188Z,98209.83
2019-01-11T03:30:59.786Z,98207.70
2019-01-11T03:31:31.393Z,98210.25
2019-01-11T03:32:03.000Z,98202.20
2019-01-11T03:32:34.600Z,98200.08
2019-01-11T03:33:06.195Z,98205.62
2019-01-11T03:33:37.804Z,98201.41
2019-01-11T03:34:09.398Z,98204.84
2019-01-11T03:34:40.989Z,98200.65
2019-01-11T03:35:15.529Z,98197.30
2019-01-11T03:35:47.135Z,98201.94
2019-01-11T03:36:18.744Z,98190.87
2019-01-11T03:36:50.335Z,98201.08
2019-01-11T03:37:21.925Z,98198.09
2019-01-11T03:37:53.508Z,98196.88
2019-01-11T03:38:25.118Z,98192.67
2019-01-11T03:38:56.700Z,98196.95
2019-01-11T03:39:28.284Z,98202.97
2019-01-11T03:39:59.878Z,98199.14
2019-01-11T03:40:31.502Z,98204.73
2019-01-11T03:41:03.142Z,98165.18
2019-01-11T03:41:34.733Z,98200.97
2019-01-11T03:42:06.341Z,98201.02
2019-01-11T03:42:37.953Z,98201.08
2019-01-11T03:43:09.560Z,98203.65
2019-01-11T03:43:41.168Z,98207.09
2019-01-11T03:44:12.765Z,98203.70
2019-01-11T03:44:44.371Z,98207.96
2019-01-11T03:45:15.966Z,98202.00
2019-01-11T03:45:47.604Z,98201.63
2019-01-11T03:46:19.199Z,98205.47
2019-01-11T03:46:50.799Z,98203.38
2019-01-11T03:47:22.399Z,98205.95
2019-01-11T03:47:53.985Z,98200.85
2019-01-11T03:48:25.582Z,98201.37
2019-01-11T03:48:57.190Z,98205.27
2019-01-11T03:49:28.789Z,98202.77
2019-01-11T03:50:00.372Z,98198.09
2019-01-11T03:50:31.980Z,98200.27
2019-01-11T03:51:03.594Z,98198.15
2019-01-11T03:51:35.195Z,98200.28
2019-01-11T03:52:06.832Z,98200.33
2019-01-11T03:52:38.426Z,98199.06
2019-01-11T03:53:10.019Z,98194.37
2019-01-11T03:53:41.619Z,98195.60
2019-01-11T03:54:13.216Z,98205.40
2019-01-11T03:54:44.815Z,98199.05
2019-01-11T03:55:16.395Z,98196.09
2019-01-11T03:55:48.005Z,98197.41
2019-01-11T03:56:19.616Z,98199.55
2019-01-11T03:56:51.269Z,98194.06
2019-01-11T03:57:22.872Z,98199.60
2019-01-11T03:57:54.465Z,98195.77
2019-01-11T03:58:26.075Z,98196.20
2019-01-11T03:58:57.689Z,98200.08
2019-01-11T03:59:29.279Z,98200.50
2019-01-11T04:00:00.884Z,98195.81
2019-01-11T04:00:33.363Z,98197.53
2019-01-11T04:01:04.975Z,98195.02
2019-01-11T04:01:36.556Z,98195.44
2019-01-11T04:02:08.844Z,98195.88
2019-01-11T04:02:40.437Z,98191.23
2019-01-11T04:03:12.029Z,98192.09
2019-01-11T04:03:43.636Z,98227.03
2019-01-11T04:04:15.233Z,98185.81
2019-01-11T04:04:46.840Z,98188.75
2019-01-11T04:05:18.438Z,98189.65
2019-01-11T04:05:50.078Z,98186.63
2019-01-11T04:06:21.679Z,98155.14
2019-01-11T04:06:53.260Z,98166.04
2019-01-11T04:07:24.853Z,98168.10
2019-01-11T04:07:56.456Z,98186.20
2019-01-11T04:08:28.061Z,98191.25
2019-01-11T04:08:59.668Z,98184.86
2019-01-11T04:09:31.261Z,98185.66
2019-01-11T04:10:02.853Z,98181.41
2019-01-11T04:10:34.464Z,98178.47
2019-01-11T04:11:06.093Z,98180.13
2019-01-11T04:11:37.681Z,98174.58
2019-01-11T04:12:09.293Z,98182.20
2019-01-11T04:12:40.899Z,98182.61
2019-01-11T04:13:12.497Z,98180.02
2019-01-11T04:13:44.080Z,98173.61
2019-01-11T04:14:15.679Z,98174.84
2019-01-11T04:14:47.285Z,98174.34
2019-01-11T04:15:18.886Z,98176.84
2019-01-11T04:15:50.491Z,98183.17
2019-01-11T04:16:22.162Z,98177.59
2019-01-11T04:16:53.763Z,98176.73
2019-01-11T04:17:25.358Z,98173.21
2019-01-11T04:18:01.506Z,98145.03
2019-01-11T04:18:33.097Z,98174.79
2019-01-11T04:19:04.685Z,98168.76
2019-01-11T04:19:36.293Z,98173.81
2019-01-11T04:20:07.886Z,98180.63
2019-01-11T04:20:39.477Z,98169.91
2019-01-11T04:21:11.103Z,98172.41
2019-01-11T04:21:42.693Z,98171.19
2019-01-11T04:22:14.303Z,98173.70
2019-01-11T04:22:46.489Z,98167.30
2019-01-11T04:23:18.081Z,98171.92
2019-01-11T04:23:49.664Z,98172.72
2019-01-11T04:24:21.264Z,98137.16
2019-01-11T04:25:07.633Z,98175.66
2019-01-11T04:25:39.285Z,98176.31
2019-01-11T04:26:10.896Z,98175.25
2019-01-11T04:26:42.494Z,98173.74
2019-01-11T04:27:14.090Z,98132.19
2019-01-11T04:27:45.681Z,98167.55
2019-01-11T04:28:17.275Z,98168.40
2019-01-11T04:28:48.882Z,98173.08
2019-01-11T04:29:20.488Z,98177.27
2019-01-11T04:29:52.089Z,98130.85
2019-01-11T04:30:23.692Z,98173.33
2019-01-11T04:30:55.301Z,98173.31
2019-01-11T04:31:26.923Z,98171.57
2019-01-11T04:31:58.514Z,98166.92
2019-01-11T04:32:30.111Z,98168.59
2019-01-11T04:33:01.713Z,98164.74
2019-01-11T04:33:33.310Z,98168.14
2019-01-11T04:34:04.907Z,98171.06
2019-01-11T04:34:36.517Z,98168.02
2019-01-11T04:35:08.111Z,98162.50
2019-01-11T04:35:39.720Z,98167.48
2019-01-11T04:36:11.343Z,98170.89
2019-01-11T04:36:42.976Z,98162.80
2019-01-11T04:37:14.574Z,98162.83
2019-01-11T04:37:46.165Z,98159.01
2019-01-11T04:38:17.763Z,98157.73
2019-01-11T04:38:49.366Z,98162.43
2019-01-11T04:39:20.997Z,98164.56
2019-01-11T04:39:52.582Z,98165.41
2019-01-11T04:40:24.189Z,98165.39
2019-01-11T04:40:55.800Z,98166.61
2019-01-11T04:41:27.407Z,98162.78
2019-01-11T04:41:58.998Z,98157.61
2019-01-11T04:42:30.605Z,98168.73
2019-01-11T04:43:02.211Z,98161.45
2019-01-11T04:43:33.801Z,98160.17
2019-01-11T04:44:05.399Z,98160.58
2019-01-11T04:44:36.998Z,98162.72
2019-01-11T04:45:08.602Z,98156.77
2019-01-11T04:45:40.209Z,98163.56
2019-01-11T04:46:11.806Z,98164.86
2019-01-11T04:46:43.448Z,98161.45
2019-01-11T04:47:15.585Z,98156.33
2019-01-11T04:47:46.729Z,98157.61
2019-01-11T04:48:18.331Z,98154.63
2019-01-11T04:48:49.916Z,98160.58
2019-01-11T04:49:21.509Z,98160.17
2019-01-11T04:49:53.113Z,98155.48
2019-01-11T04:50:24.718Z,98156.34
2019-01-11T04:50:56.300Z,98158.53
2019-01-11T04:51:27.914Z,98159.32
2019-01-11T04:51:59.505Z,98150.42
2019-01-11T04:52:31.098Z,98151.27
2019-01-11T04:53:02.683Z,98157.23
2019-01-11T04:53:34.276Z,98153.88
2019-01-11T04:54:05.865Z,98149.22
2019-01-11T04:54:37.466Z,98146.72
2019-01-11T04:55:09.081Z,98150.54
2019-01-11T04:55:40.682Z,98167.17
2019-01-11T04:56:12.278Z,98150.12
2019-01-11T04:56:43.889Z,98146.66
2019-01-11T04:57:15.481Z,98146.70
2019-01-11T04:57:47.089Z,98145.81
2019-01-11T04:58:18.688Z,98140.74
2019-01-11T04:58:50.282Z,98137.39
2019-01-11T04:59:21.882Z,98145.06
2019-01-11T04:59:53.483Z,98133.13
2019-01-11T05:00:25.078Z,98136.99
2019-01-11T05:00:56.679Z,98131.08
2019-01-11T05:01:28.275Z,98132.35
2019-01-11T05:01:59.895Z,98133.26
2019-01-11T05:02:31.499Z,98128.52
2019-01-11T05:03:03.105Z,98134.97
2019-01-11T05:03:34.732Z,98128.63
2019-01-11T05:04:06.330Z,98129.45
2019-01-11T05:04:37.945Z,98123.11
2019-01-11T05:05:09.550Z,98127.38
2019-01-11T05:05:41.144Z,98129.55
2019-01-11T05:06:12.723Z,98124.07
2019-01-11T05:06:44.340Z,98129.20
2019-01-11T05:07:15.941Z,98126.64
2019-01-11T05:07:47.544Z,98133.89
2019-01-11T05:08:19.134Z,98128.83
2019-01-11T05:08:50.728Z,98131.88
2019-01-11T05:09:22.319Z,98131.02
2019-01-11T05:09:53.927Z,98138.28
2019-01-11T05:10:25.539Z,98131.52
2019-01-11T05:10:57.134Z,98130.28
2019-01-11T05:11:28.721Z,98129.88
2019-01-11T05:12:00.328Z,98126.52
2019-01-11T05:12:31.922Z,98131.69
2019-01-11T05:13:03.519Z,98130.41
2019-01-11T05:13:36.067Z,98128.30
2019-01-11T05:14:07.669Z,98128.77
2019-01-11T05:14:39.269Z,98126.27
2019-01-11T05:15:10.871Z,98095.66
2019-01-11T05:15:42.485Z,98127.18
2019-01-11T05:16:14.097Z,98124.64
2019-01-11T05:16:45.717Z,98125.98
2019-01-11T05:17:17.323Z,98130.28
2019-01-11T05:17:48.927Z,98125.23
2019-01-11T05:18:20.528Z,98131.64
2019-01-11T05:18:52.139Z,98124.45
2019-01-11T05:19:23.739Z,98127.48
2019-01-11T05:19:55.353Z,98126.69
2019-01-11T05:20:26.952Z,98126.70
2019-01-11T05:20:58.535Z,98122.50
2019-01-11T05:21:30.133Z,98122.55
2019-01-11T05:22:01.764Z,98122.17
2019-01-11T05:22:33.348Z,98125.17
2019-01-11T05:23:04.952Z,98123.08
2019-01-11T05:23:36.545Z,98122.25
2019-01-11T05:24:08.147Z,98126.94
2019-01-11T05:24:39.748Z,98122.72
2019-01-11T05:25:11.364Z,98120.59
2019-01-11T05:25:42.977Z,98119.34
2019-01-11T05:26:14.583Z,98117.63
2019-01-11T05:26:46.181Z,98121.90
2019-01-11T05:27:17.812Z,98117.21
2019-01-11T05:27:49.421Z,98118.91
2019-01-11T05:28:21.075Z,98121.47
2019-01-11T05:28:52.666Z,98120.61
2019-01-11T05:29:24.248Z,98113.38
2019-01-11T05:29:55.839Z,98121.89
2019-01-11T05:30:27.447Z,98119.81
2019-01-11T05:30:59.325Z,98118.45
2019-01-11T05:31:30.923Z,98122.68
2019-01-11T05:32:02.558Z,98121.81
2019-01-11T05:32:34.148Z,98122.61
2019-01-11T05:33:05.738Z,98120.84
2019-01-11T05:33:37.330Z,98119.95
2019-01-11T05:34:08.924Z,98113.12
2019-01-11T05:34:40.518Z,98110.95
2019-01-11T05:35:12.123Z,98112.17
2019-01-11T05:35:43.730Z,98110.87
2019-01-11T05:36:15.330Z,98113.38
2019-01-11T05:36:46.927Z,98116.73
2019-01-11T05:37:18.548Z,98112.47
2019-01-11T05:37:50.154Z,98114.59
2019-01-11T05:38:21.746Z,98113.27
2019-01-11T05:38:53.337Z,98111.54
2019-01-11T05:39:24.942Z,98113.19
2019-01-11T05:39:56.543Z,98110.16
2019-01-11T05:40:28.185Z,98108.88
2019-01-11T05:40:59.789Z,98107.54
2019-01-11T05:41:31.375Z,98111.37
2019-01-11T05:42:03.006Z,98111.31
2019-01-11T05:42:34.599Z,98104.86
2019-01-11T05:43:06.182Z,98107.79
2019-01-11T05:43:37.773Z,98106.50
2019-01-11T05:44:09.379Z,98100.53
2019-01-11T05:44:40.988Z,98106.86
2019-01-11T05:45:12.590Z,98105.11
2019-01-11T05:45:44.182Z,98103.34
2019-01-11T05:46:15.797Z,98103.77
2019-01-11T05:46:47.391Z,98105.84
2019-01-11T05:47:19.028Z,98104.11
2019-01-11T05:47:50.630Z,98104.91
2019-01-11T05:48:22.230Z,98104.86
2019-01-11T05:48:53.834Z,98104.41
2019-01-11T05:49:25.462Z,98107.81
2019-01-11T05:49:57.068Z,98072.97
2019-01-11T05:50:28.655Z,98106.44
2019-01-11T05:51:00.265Z,98105.56
2019-01-11T05:51:31.879Z,98107.69
2019-01-11T05:52:03.481Z,98108.50
2019-01-11T05:52:35.098Z,98108.91
2019-01-11T05:53:06.705Z,98107.14
2019-01-11T05:53:38.349Z,98107.09
2019-01-11T05:54:09.942Z,98101.12
2019-01-11T05:54:42.529Z,98106.64
2019-01-11T05:55:13.210Z,98069.62
2019-01-11T05:55:44.812Z,98104.45
2019-01-11T05:56:16.406Z,98106.04
2019-01-11T05:56:48.013Z,98102.20
2019-01-11T05:57:19.646Z,98106.45
2019-01-11T05:58:09.040Z,98110.25
2019-01-11T05:58:40.643Z,98106.73
2019-01-11T05:59:12.242Z,98105.86
2019-01-11T05:59:43.836Z,98106.23
2019-01-11T06:00:15.444Z,98107.91
2019-01-11T06:00:47.110Z,98109.20
2019-01-11T06:01:18.716Z,98107.42
2019-01-11T06:01:50.315Z,98103.55
2019-01-11T06:02:21.934Z,98107.37
2019-01-11T06:02:53.526Z,98105.66
2019-01-11T06:03:25.131Z,98101.38
2019-01-11T06:03:56.903Z,98106.45
2019-01-11T06:04:33.884Z,98101.81
2019-01-11T06:05:05.477Z,98103.89
2019-01-11T06:05:37.064Z,98097.91
2019-01-11T06:06:08.668Z,98099.19
2019-01-11T06:06:55.147Z,98102.18
2019-01-11T06:07:26.774Z,98102.17
2019-01-11T06:07:58.394Z,98102.97
2019-01-11T06:08:30.000Z,98094.92
2019-01-11T06:09:01.599Z,98099.49
2019-01-11T06:09:33.194Z,98097.77
2019-01-11T06:10:04.789Z,98096.48
2019-01-11T06:10:36.401Z,98091.39
2019-01-11T06:11:07.994Z,98091.88
2019-01-11T06:11:39.597Z,98094.44
2019-01-11T06:12:11.177Z,98094.89